createdAt,value
2022-10-25T00:02:00.761Z,101036.67
2022-10-25T00:04:29.699Z,101032.14
2022-10-25T00:06:58.421Z,101032.46
2022-10-25T00:09:27.240Z,101029.26
2022-10-25T00:11:56.103Z,101030.71
2022-10-25T00:14:24.933Z,101031.90
2022-10-25T00:16:53.607Z,101034.10
2022-10-25T00:19:22.400Z,101033.17
2022-10-25T00:22:09.331Z,101033.98
2022-10-25T00:24:38.041Z,101036.48
2022-10-25T00:27:07.111Z,101035.91
2022-10-25T00:33:38.081Z,101031.11
2022-10-25T00:36:08.985Z,101031.52
2022-10-25T00:38:37.984Z,101030.00
2022-10-25T00:41:07.600Z,101031.23
2022-10-25T00:43:38.616Z,101030.61
2022-10-25T00:46:10.029Z,101029.88
2022-10-25T00:48:38.808Z,101024.70
2022-10-25T00:51:07.816Z,101016.85
2022-10-25T00:53:37.852Z,101012.79
2022-10-25T00:56:10.219Z,101010.48
2022-10-25T00:58:40.017Z,101010.73
2022-10-25T01:01:10.013Z,101006.28
2022-10-25T01:03:39.767Z,100997.70
2022-10-25T01:06:12.993Z,100993.88
2022-10-25T01:08:43.047Z,100991.02
2022-10-25T01:11:11.894Z,100989.36
2022-10-25T01:13:40.644Z,100987.11
2022-10-25T01:16:14.480Z,100982.46
2022-10-25T01:18:46.554Z,100980.95
2022-10-25T01:21:47.539Z,100977.76
2022-10-25T01:24:53.898Z,100974.86
2022-10-25T01:27:50.505Z,100972.38
2022-10-25T01:30:21.249Z,100970.04
2022-10-25T01:32:57.749Z,100968.93
2022-10-25T01:35:29.319Z,100962.63
2022-10-25T01:38:13.112Z,100961.61
2022-10-25T01:40:47.187Z,100963.05
2022-10-25T01:43:23.519Z,100967.00
2022-10-25T01:45:57.593Z,100966.50
2022-10-25T01:48:30.705Z,100966.59
2022-10-25T01:51:06.796Z,100964.56
2022-10-25T01:53:44.972Z,100963.26
2022-10-25T01:56:17.733Z,100959.18
2022-10-25T01:59:08.249Z,100962.52
2022-10-25T02:04:18.974Z,100964.50
2022-10-25T02:06:52.157Z,100961.73
2022-10-25T02:09:26.423Z,100961.45
2022-10-25T02:11:56.515Z,100957.27
2022-10-25T02:14:28.824Z,100956.83
2022-10-25T02:16:59.199Z,100955.98
2022-10-25T02:19:33.103Z,100950.88
2022-10-25T02:22:03.537Z,100952.09
2022-10-25T02:24:32.992Z,100947.96
2022-10-25T02:27:02.132Z,100947.27
2022-10-25T02:29:32.056Z,100951.91
2022-10-25T02:32:01.125Z,100953.12
2022-10-25T02:34:29.914Z,100947.59
2022-10-25T02:36:58.792Z,100946.66
2022-10-25T02:39:31.295Z,100948.00
2022-10-25T02:42:01.736Z,100951.86
2022-10-25T02:44:30.581Z,100955.64
2022-10-25T02:46:59.437Z,100961.38
2022-10-25T02:49:28.317Z,100960.00
2022-10-25T02:51:57.099Z,100954.52
2022-10-25T02:54:25.818Z,100949.88
2022-10-25T02:56:54.579Z,100945.69
2022-10-25T02:59:23.934Z,100942.55
2022-10-25T03:01:52.862Z,100940.84
2022-10-25T03:04:22.047Z,100946.86
2022-10-25T03:06:50.816Z,100952.30
2022-10-25T03:09:19.852Z,100948.18
2022-10-25T03:11:48.689Z,100949.31
2022-10-25T03:14:17.452Z,100947.35
2022-10-25T03:19:20.362Z,100944.14
2022-10-25T03:21:49.148Z,100944.84
2022-10-25T03:24:18.237Z,100942.23
2022-10-25T03:26:47.117Z,100936.73
2022-10-25T03:29:16.054Z,100929.41
2022-10-25T03:31:44.816Z,100927.42
2022-10-25T03:34:13.601Z,100921.16
2022-10-25T03:36:42.341Z,100922.05
2022-10-25T03:39:11.861Z,100921.20
2022-10-25T03:41:40.590Z,100921.86
2022-10-25T03:44:09.843Z,100919.21
2022-10-25T03:46:38.702Z,100920.71
2022-10-25T03:49:07.562Z,100922.91
2022-10-25T03:51:36.398Z,100917.05
2022-10-25T03:54:05.329Z,100909.20
2022-10-25T03:56:34.203Z,100906.90
2022-10-25T03:59:02.977Z,100907.91
2022-10-25T04:01:32.569Z,100910.02
2022-10-25T04:04:01.931Z,100913.52
2022-10-25T04:06:30.816Z,100911.24
2022-10-25T04:08:59.682Z,100907.78
2022-10-25T04:11:29.357Z,100910.58
2022-10-25T04:13:58.865Z,100910.05
2022-10-25T04:16:27.840Z,100912.30
2022-10-25T04:18:58.552Z,100912.86
2022-10-25T04:21:27.469Z,100911.23
2022-10-25T04:23:58.291Z,100911.52
2022-10-25T04:26:30.182Z,100912.09
2022-10-25T04:28:59.378Z,100910.13
2022-10-25T04:31:28.468Z,100906.73
2022-10-25T04:33:57.863Z,100904.33
2022-10-25T04:36:29.490Z,100903.20
2022-10-25T04:38:58.545Z,100907.62
2022-10-25T04:41:27.428Z,100906.07
2022-10-25T04:43:56.378Z,100901.31
2022-10-25T04:46:25.322Z,100905.67
2022-10-25T04:48:54.237Z,100903.26
2022-10-25T04:51:23.103Z,100902.96
2022-10-25T04:53:54.291Z,100903.65
2022-10-25T04:56:23.802Z,100903.91
2022-10-25T05:00:06.564Z,100901.63
2022-10-25T05:02:38.824Z,100902.04
2022-10-25T05:05:10.068Z,100907.72
2022-10-25T05:07:42.303Z,100914.30
2022-10-25T05:10:14.815Z,100917.42
2022-10-25T05:12:47.519Z,100913.41
2022-10-25T05:15:20.548Z,100919.16
2022-10-25T05:17:52.829Z,100921.91
2022-10-25T05:20:25.017Z,100926.26
2022-10-25T05:23:08.965Z,100936.63
2022-10-25T05:25:44.120Z,100937.39
2022-10-25T05:28:16.336Z,100939.41
2022-10-25T05:30:48.661Z,100940.98
2022-10-25T05:33:21.093Z,100943.11
2022-10-25T05:35:55.592Z,100946.70
2022-10-25T05:38:34.359Z,100950.38
2022-10-25T05:41:13.105Z,100960.22
2022-10-25T05:43:46.176Z,100966.47
2022-10-25T05:46:19.798Z,100965.58
2022-10-25T05:48:53.759Z,100969.48
2022-10-25T05:51:32.945Z,100972.55
2022-10-25T05:54:11.715Z,100977.11
2022-10-25T06:16:52.517Z,100972.58
2022-10-25T06:19:27.857Z,100976.55
2022-10-25T06:22:48.713Z,100970.97
2022-10-25T06:26:33.717Z,100963.85
2022-10-25T06:29:13.665Z,100964.55
2022-10-25T06:31:50.876Z,100969.91
2022-10-25T06:34:30.905Z,100971.30
2022-10-25T06:37:04.636Z,100968.98
2022-10-25T06:39:37.802Z,100976.02
2022-10-25T06:42:10.408Z,100977.05
2022-10-25T06:44:42.972Z,100972.71
2022-10-25T06:47:17.747Z,100969.64
2022-10-25T06:49:51.619Z,100970.70
2022-10-25T06:52:24.759Z,100967.23
2022-10-25T06:54:58.287Z,100961.16
2022-10-25T06:57:30.824Z,100958.76
2022-10-25T07:00:02.112Z,100949.35
2022-10-25T07:06:00.025Z,100946.58
2022-10-25T07:06:14.019Z,100947.30
2022-10-25T07:08:53.857Z,100940.56
2022-10-25T07:12:25.311Z,100939.25
2022-10-25T07:18:07.713Z,100937.79
2022-10-25T07:21:45.346Z,100935.69
2022-10-25T07:24:48.484Z,100930.67
2022-10-25T07:27:48.569Z,100927.42
2022-10-25T07:30:53.717Z,100922.52
2022-10-25T07:33:26.413Z,100924.83
2022-10-25T07:36:09.932Z,100917.96
2022-10-25T07:38:39.561Z,100912.60
2022-10-25T07:41:08.742Z,100913.22
2022-10-25T07:43:38.773Z,100910.28
2022-10-25T07:46:10.515Z,100906.67
2022-10-25T07:48:39.442Z,100907.23
2022-10-25T07:51:13.705Z,100902.29
2022-10-25T07:53:44.681Z,100900.98
2022-10-25T07:56:20.441Z,100898.08
2022-10-25T07:58:54.953Z,100896.27
2022-10-25T08:01:28.742Z,100897.48
2022-10-25T08:04:03.065Z,100892.97
2022-10-25T08:06:32.598Z,100885.86
2022-10-25T08:09:09.749Z,100877.98
2022-10-25T08:11:45.988Z,100879.41
2022-10-25T08:14:16.175Z,100878.50
2022-10-25T08:16:46.544Z,100876.48
2022-10-25T08:19:15.934Z,100871.37
2022-10-25T08:21:45.411Z,100868.42
2022-10-25T08:24:14.749Z,100866.48
2022-10-25T08:26:43.911Z,100869.30
2022-10-25T08:29:13.371Z,100868.62
2022-10-25T08:31:45.187Z,100866.67
2022-10-25T08:34:15.318Z,100867.10
2022-10-25T08:36:45.300Z,100868.35
2022-10-25T08:39:18.208Z,100863.08
2022-10-25T08:41:57.032Z,100857.57
2022-10-25T08:44:38.532Z,100856.08
2022-10-25T08:47:18.059Z,100857.27
2022-10-25T08:49:56.888Z,100850.22
2022-10-25T08:52:35.827Z,100856.31
2022-10-25T08:55:14.700Z,100858.66
2022-10-25T08:57:46.876Z,100859.81
2022-10-25T09:01:40.345Z,100862.48
2022-10-25T09:04:24.689Z,100857.95
2022-10-25T09:07:09.220Z,100857.17
2022-10-25T09:16:06.985Z,100856.77
2022-10-25T09:18:48.937Z,100847.39
2022-10-25T09:21:28.160Z,100843.46
2022-10-25T09:24:09.931Z,100834.36
2022-10-25T09:26:48.701Z,100835.52
2022-10-25T09:29:29.329Z,100834.91
2022-10-25T09:32:11.502Z,100827.07
2022-10-25T09:34:46.169Z,100825.46
2022-10-25T09:37:23.671Z,100823.30
2022-10-25T09:40:01.231Z,100811.58
2022-10-25T09:42:40.791Z,100811.70
2022-10-25T09:45:21.270Z,100813.13
2022-10-25T09:47:59.267Z,100808.81
2022-10-25T09:50:48.850Z,100798.63
2022-10-25T09:53:24.898Z,100798.33
2022-10-25T09:55:59.278Z,100787.45
2022-10-25T09:58:32.969Z,100792.39
2022-10-25T10:01:14.653Z,100791.05
2022-10-25T10:03:50.850Z,100799.53
2022-10-25T10:06:30.998Z,100800.23
2022-10-25T10:09:08.329Z,100790.73
2022-10-25T10:11:43.401Z,100788.86
2022-10-25T10:14:31.299Z,100782.68
2022-10-25T10:17:14.452Z,100782.42
2022-10-25T10:19:46.790Z,100773.79
2022-10-25T10:22:17.364Z,100771.33
2022-10-25T10:24:52.585Z,100767.20
2022-10-25T10:27:29.608Z,100762.37
2022-10-25T10:30:05.961Z,100754.65
2022-10-25T10:32:44.096Z,100747.45
2022-10-25T10:35:30.443Z,100745.46
2022-10-25T10:38:25.773Z,100741.90
2022-10-25T10:41:16.071Z,100740.81
2022-10-25T10:43:51.776Z,100732.64
2022-10-25T10:46:26.064Z,100732.20
2022-10-25T10:49:00.740Z,100736.44
2022-10-25T10:51:44.702Z,100734.69
2022-10-25T10:54:33.915Z,100739.48
2022-10-25T10:57:12.872Z,100736.84
2022-10-25T10:59:53.957Z,100732.73
2022-10-25T11:02:42.428Z,100721.95
2022-10-25T11:05:28.429Z,100718.85
2022-10-25T11:08:03.109Z,100717.38
2022-10-25T11:10:38.243Z,100720.45
2022-10-25T11:13:19.189Z,100719.06
2022-10-25T11:16:12.394Z,100706.12
2022-10-25T11:18:56.165Z,100697.40
2022-10-25T11:21:45.488Z,100694.14
2022-10-25T11:24:30.778Z,100693.33
2022-10-25T11:27:24.413Z,100691.84
2022-10-25T11:30:14.217Z,100685.56
2022-10-25T11:33:23.426Z,100680.79
2022-10-25T11:36:07.762Z,100676.96
2022-10-25T11:39:05.648Z,100674.70
2022-10-25T11:41:47.972Z,100665.43
2022-10-25T11:44:36.908Z,100661.84
2022-10-25T11:47:18.782Z,100660.40
2022-10-25T11:50:02.925Z,100654.73
2022-10-25T11:52:57.767Z,100651.42
2022-10-25T11:55:36.164Z,100645.89
2022-10-25T11:58:20.006Z,100650.89
2022-10-25T12:00:59.869Z,100646.94
2022-10-25T12:03:53.951Z,100643.77
2022-10-25T12:06:31.828Z,100647.59
2022-10-25T12:09:13.798Z,100632.56
2022-10-25T12:11:53.164Z,100637.34
2022-10-25T12:14:31.919Z,100631.10
2022-10-25T12:17:08.066Z,100626.23
2022-10-25T12:19:46.271Z,100624.33
2022-10-25T12:22:22.938Z,100623.80
2022-10-25T12:25:00.891Z,100631.02
2022-10-25T12:27:33.260Z,100628.13
2022-10-25T12:30:08.185Z,100625.55
2022-10-25T12:32:43.118Z,100626.73
2022-10-25T12:35:22.049Z,100619.92
2022-10-25T12:37:59.134Z,100617.27
2022-10-25T12:40:39.018Z,100626.48
2022-10-25T12:43:20.920Z,100620.63
2022-10-25T12:46:11.431Z,100618.69
2022-10-25T12:49:25.205Z,100617.45
2022-10-25T12:52:16.655Z,100622.10
2022-10-25T12:55:02.388Z,100627.98
2022-10-25T12:57:48.310Z,100620.89
2022-10-25T13:00:27.491Z,100612.77
2022-10-25T13:03:29.578Z,100613.66
2022-10-25T13:17:49.744Z,100600.76
2022-10-25T13:20:54.619Z,100603.63
2022-10-25T13:24:00.105Z,100611.54
2022-10-25T13:27:12.827Z,100604.39
2022-10-25T13:33:35.802Z,100601.86
2022-10-25T13:36:16.821Z,100605.54
2022-10-25T13:38:53.965Z,100605.20
2022-10-25T13:41:28.597Z,100609.48
2022-10-25T13:44:05.942Z,100607.67
2022-10-25T13:46:39.961Z,100613.63
2022-10-25T13:49:34.205Z,100608.55
2022-10-25T13:52:09.125Z,100612.23
2022-10-25T13:54:48.794Z,100616.16
2022-10-25T13:57:50.690Z,100608.79
2022-10-25T14:00:36.032Z,100602.76
2022-10-25T14:06:29.275Z,100604.11
2022-10-25T14:09:19.138Z,100594.98
2022-10-25T14:11:55.708Z,100593.41
2022-10-25T14:14:31.532Z,100594.98
2022-10-25T14:17:16.607Z,100597.45
2022-10-25T14:19:51.859Z,100597.41
2022-10-25T14:22:32.971Z,100598.02
2022-10-25T14:25:09.356Z,100597.31
2022-10-25T14:27:42.042Z,100593.04
2022-10-25T14:30:27.510Z,100590.25
2022-10-25T14:33:03.522Z,100597.33
2022-10-25T14:35:37.821Z,100592.46
2022-10-25T14:38:19.115Z,100592.85
2022-10-25T14:41:01.157Z,100592.54
2022-10-25T14:43:38.467Z,100595.17
2022-10-25T14:46:17.871Z,100590.50
2022-10-25T14:48:51.414Z,100581.98
2022-10-25T14:51:26.060Z,100578.08
2022-10-25T14:54:02.963Z,100576.68
2022-10-25T14:56:36.486Z,100574.80
2022-10-25T14:59:17.808Z,100576.16
2022-10-25T15:01:58.374Z,100582.80
2022-10-25T15:04:43.154Z,100580.02
2022-10-25T15:07:25.751Z,100582.39
2022-10-25T15:10:00.676Z,100590.81
2022-10-25T15:12:36.344Z,100596.91
2022-10-25T15:15:34.116Z,100595.71
2022-10-25T15:18:09.628Z,100596.84
2022-10-25T15:20:42.215Z,100594.59
2022-10-25T15:23:18.285Z,100592.47
2022-10-25T15:25:53.148Z,100594.70
2022-10-25T15:28:26.745Z,100590.42
2022-10-25T15:31:02.216Z,100595.55
2022-10-25T15:33:35.202Z,100603.04
2022-10-25T15:36:08.927Z,100603.73
2022-10-25T15:39:06.309Z,100602.29
2022-10-25T15:41:33.782Z,100600.56
2022-10-25T15:44:06.152Z,100600.76
2022-10-25T15:46:38.227Z,100601.44
2022-10-25T15:49:12.329Z,100600.52
2022-10-25T15:51:45.686Z,100598.80
2022-10-25T15:54:21.531Z,100604.59
2022-10-25T15:57:01.099Z,100608.20
2022-10-25T15:59:33.515Z,100608.06
2022-10-25T16:02:07.593Z,100613.17
2022-10-25T16:04:39.779Z,100620.64
2022-10-25T16:07:13.976Z,100620.34
2022-10-25T16:09:46.363Z,100625.16
2022-10-25T16:12:23.321Z,100622.67
2022-10-25T16:14:55.936Z,100622.44
2022-10-25T16:17:28.347Z,100624.39
2022-10-25T16:19:58.852Z,100623.33
2022-10-25T16:22:31.079Z,100618.48
2022-10-25T16:25:03.401Z,100623.75
2022-10-25T16:27:35.723Z,100622.52
2022-10-25T16:30:08.253Z,100619.63
2022-10-25T16:32:40.479Z,100619.28
2022-10-25T16:35:16.038Z,100616.02
2022-10-25T16:37:48.606Z,100625.42
2022-10-25T16:40:24.502Z,100626.33
2022-10-25T16:42:58.418Z,100627.02
2022-10-25T16:45:32.595Z,100624.86
2022-10-25T16:48:05.502Z,100627.10
2022-10-25T16:50:38.048Z,100633.11
2022-10-25T16:53:12.833Z,100639.67
2022-10-25T16:55:45.477Z,100641.37
2022-10-25T16:58:20.095Z,100648.30
2022-10-25T17:00:57.891Z,100647.29
2022-10-25T17:03:30.447Z,100638.77
2022-10-25T17:06:22.187Z,100633.40
2022-10-25T17:08:57.863Z,100636.35
2022-10-25T17:11:31.745Z,100641.97
2022-10-25T17:16:46.848Z,100647.74
2022-10-25T17:19:19.486Z,100651.30
2022-10-25T17:21:51.843Z,100655.17
2022-10-25T17:24:22.552Z,100654.34
2022-10-25T17:26:57.839Z,100654.86
2022-10-25T17:29:32.446Z,100654.86
2022-10-25T17:32:24.920Z,100654.84
2022-10-25T17:34:57.218Z,100653.47
2022-10-25T17:37:31.591Z,100652.63
2022-10-25T17:40:04.129Z,100653.13
2022-10-25T17:42:36.668Z,100658.48
2022-10-25T17:45:10.799Z,100660.14
2022-10-25T17:47:51.396Z,100661.83
2022-10-25T17:50:24.233Z,100654.86
2022-10-25T17:52:57.623Z,100657.35
2022-10-25T17:55:33.494Z,100654.48
2022-10-25T17:58:07.065Z,100652.64
2022-10-25T18:00:40.216Z,100656.33
2022-10-25T18:03:12.842Z,100656.23
2022-10-25T18:05:46.189Z,100657.02
2022-10-25T18:08:18.891Z,100660.67
2022-10-25T18:10:51.102Z,100668.89
2022-10-25T18:13:25.074Z,100663.79
2022-10-25T18:16:02.030Z,100668.85
2022-10-25T18:18:34.481Z,100670.96
2022-10-25T18:21:09.490Z,100668.57
2022-10-25T18:23:49.288Z,100676.95
2022-10-25T18:26:27.008Z,100672.78
2022-10-25T18:29:03.176Z,100678.86
2022-10-25T18:31:44.571Z,100682.56
2022-10-25T18:34:28.529Z,100687.77
2022-10-25T18:37:03.621Z,100692.65
2022-10-25T18:39:38.573Z,100695.08
2022-10-25T18:42:21.506Z,100702.19
2022-10-25T18:45:20.146Z,100703.09
2022-10-25T18:47:58.101Z,100711.83
2022-10-25T18:50:39.064Z,100710.15
2022-10-25T18:53:20.259Z,100707.14
2022-10-25T18:55:53.669Z,100705.26
2022-10-25T18:58:31.235Z,100707.84
2022-10-25T19:01:10.539Z,100714.16
2022-10-25T19:03:43.699Z,100724.09
2022-10-25T19:06:16.257Z,100732.19
2022-10-25T19:08:49.522Z,100731.49
2022-10-25T19:11:26.751Z,100732.13
2022-10-25T19:14:04.411Z,100738.03
2022-10-25T19:16:37.567Z,100738.73
2022-10-25T19:19:12.197Z,100734.62
2022-10-25T19:21:44.804Z,100735.79
2022-10-25T19:24:17.452Z,100735.55
2022-10-25T19:26:49.812Z,100738.11
2022-10-25T19:29:22.349Z,100742.79
2022-10-25T19:31:55.171Z,100746.09
2022-10-25T19:34:27.665Z,100754.70
2022-10-25T19:37:01.789Z,100764.77
2022-10-25T19:39:34.576Z,100767.02
2022-10-25T19:42:07.104Z,100760.16
2022-10-25T19:44:37.861Z,100760.56
2022-10-25T19:47:10.317Z,100755.52
2022-10-25T19:49:40.863Z,100756.05
2022-10-25T19:52:13.124Z,100759.42
2022-10-25T19:54:44.485Z,100763.26
2022-10-25T19:57:16.834Z,100771.82
2022-10-25T19:59:53.714Z,100770.43
2022-10-25T20:02:26.454Z,100772.38
2022-10-25T20:04:58.910Z,100775.94
2022-10-25T20:07:29.701Z,100784.95
2022-10-25T20:10:02.022Z,100796.77
2022-10-25T20:12:37.001Z,100792.50
2022-10-25T20:15:19.088Z,100790.47
2022-10-25T20:17:51.679Z,100796.58
2022-10-25T20:20:24.263Z,100803.23
2022-10-25T20:22:58.329Z,100800.70
2022-10-25T20:25:31.971Z,100803.94
2022-10-25T20:28:05.851Z,100806.70
2022-10-25T20:30:43.505Z,100806.43
2022-10-25T20:33:15.840Z,100810.13
2022-10-25T20:35:49.647Z,100817.23
2022-10-25T20:38:27.684Z,100826.70
2022-10-25T20:41:07.770Z,100830.86
2022-10-25T20:43:41.001Z,100839.02
2022-10-25T20:46:13.446Z,100838.35
2022-10-25T20:48:45.472Z,100836.78
2022-10-25T20:51:19.647Z,100833.63
2022-10-25T20:53:52.349Z,100829.85
2022-10-25T20:56:25.014Z,100829.67
2022-10-25T20:58:57.378Z,100827.02
2022-10-25T21:01:29.538Z,100827.91
2022-10-25T21:04:04.117Z,100829.77
2022-10-25T21:06:36.430Z,100823.13
2022-10-25T21:09:09.031Z,100822.27
2022-10-25T21:11:43.908Z,100822.04
2022-10-25T21:14:16.041Z,100819.92
2022-10-25T21:16:49.828Z,100822.00
2022-10-25T21:19:22.044Z,100828.59
2022-10-25T21:21:54.431Z,100831.63
2022-10-25T21:24:25.186Z,100830.98
2022-10-25T21:26:57.494Z,100834.46
2022-10-25T21:29:29.745Z,100834.42
2022-10-25T21:32:02.008Z,100834.10
2022-10-25T21:34:34.606Z,100835.50
2022-10-25T21:37:05.147Z,100837.69
2022-10-25T21:39:39.183Z,100841.15
2022-10-25T21:42:11.135Z,100842.80
2022-10-25T21:44:43.686Z,100846.97
2022-10-25T21:47:14.285Z,100850.54
2022-10-25T21:49:46.543Z,100852.52
2022-10-25T21:52:20.614Z,100857.73
2022-10-25T21:54:53.109Z,100863.78
2022-10-25T21:57:26.391Z,100862.97
2022-10-25T21:59:58.565Z,100870.65
2022-10-25T22:02:32.328Z,100873.35
2022-10-25T22:05:08.977Z,100871.19
2022-10-25T22:07:43.452Z,100869.46
2022-10-25T22:10:15.610Z,100871.73
2022-10-25T22:12:47.902Z,100875.66
2022-10-25T22:15:20.856Z,100878.19
2022-10-25T22:17:52.959Z,100877.23
2022-10-25T22:20:29.292Z,100877.11
2022-10-25T22:31:52.068Z,100896.76
2022-10-25T22:34:24.186Z,100900.27
2022-10-25T22:36:56.405Z,100902.60
2022-10-25T22:39:28.558Z,100910.39
2022-10-25T22:42:00.752Z,100913.37
2022-10-25T22:44:32.810Z,100919.14
2022-10-25T22:47:04.929Z,100924.66
2022-10-25T22:49:37.091Z,100924.23
2022-10-25T22:52:09.291Z,100932.30
2022-10-25T22:54:41.545Z,100940.27
2022-10-25T22:57:13.796Z,100946.88
2022-10-25T22:59:45.975Z,100959.94
2022-10-25T23:02:18.127Z,100962.12
2022-10-25T23:04:50.248Z,100964.95
2022-10-25T23:07:22.468Z,100961.22
2022-10-25T23:09:54.732Z,100961.41
2022-10-25T23:12:27.065Z,100965.16
2022-10-25T23:14:59.175Z,100964.17
2022-10-25T23:17:31.360Z,100968.00
2022-10-25T23:20:03.419Z,100974.49
2022-10-25T23:22:35.590Z,100980.28
2022-10-25T23:25:09.134Z,100980.85
2022-10-25T23:27:41.358Z,100978.79
2022-10-25T23:30:15.056Z,100987.52
2022-10-25T23:32:47.150Z,100993.21
2022-10-25T23:35:19.455Z,100995.04
2022-10-25T23:37:51.837Z,100993.24
2022-10-25T23:40:24.147Z,100997.11
2022-10-25T23:42:56.433Z,101001.38
2022-10-25T23:45:29.004Z,101008.27
2022-10-25T23:48:01.655Z,101009.00
2022-10-25T23:50:32.210Z,101009.61
2022-10-25T23:53:04.488Z,101015.02
2022-10-25T23:55:38.809Z,101019.09
2022-10-25T23:58:10.939Z,101029.91
